createdAt,value
2022-12-05T00:00:19.198Z,3.52
2022-12-05T00:01:19.213Z,3.49
2022-12-05T00:02:19.268Z,3.37
2022-12-05T00:03:19.178Z,3.42
2022-12-05T00:04:19.290Z,3.41
2022-12-05T00:05:19.168Z,3.57
2022-12-05T00:06:19.172Z,3.50
2022-12-05T00:07:19.141Z,3.42
2022-12-05T00:08:19.194Z,3.52
2022-12-05T00:09:19.126Z,3.52
2022-12-05T00:10:19.753Z,3.46
2022-12-05T00:11:19.109Z,3.56
2022-12-05T00:12:19.403Z,3.52
2022-12-05T00:13:19.096Z,3.50
2022-12-05T00:14:19.074Z,3.59
2022-12-05T00:15:19.044Z,3.59
2022-12-05T00:16:19.078Z,3.53
2022-12-05T00:17:19.031Z,3.54
2022-12-05T00:18:26.069Z,3.52
2022-12-05T00:19:19.011Z,3.52
2022-12-05T00:20:18.993Z,3.50
2022-12-05T00:21:18.993Z,3.37
2022-12-05T00:22:19.011Z,3.26
2022-12-05T00:23:18.966Z,3.23
2022-12-05T00:24:18.964Z,3.20
2022-12-05T00:25:18.972Z,3.10
2022-12-05T00:26:18.926Z,2.97
2022-12-05T00:27:18.935Z,2.94
2022-12-05T00:28:18.936Z,2.89
2022-12-05T00:29:18.887Z,2.81
2022-12-05T00:30:18.883Z,2.79
2022-12-05T00:31:19.193Z,2.76
2022-12-05T00:32:19.076Z,2.94
2022-12-05T00:33:18.849Z,3.12
2022-12-05T00:34:18.871Z,3.01
2022-12-05T00:35:18.823Z,3.13
2022-12-05T00:36:18.820Z,3.10
2022-12-05T00:37:18.816Z,3.02
2022-12-05T00:38:18.813Z,3.13
2022-12-05T00:39:18.805Z,2.89
2022-12-05T00:40:18.771Z,2.95
2022-12-05T00:41:18.838Z,2.89
2022-12-05T00:42:19.019Z,2.86
2022-12-05T00:43:18.742Z,2.86
2022-12-05T00:44:18.753Z,2.84
2022-12-05T00:45:18.728Z,2.71
2022-12-05T00:46:18.829Z,2.73
2022-12-05T00:47:18.700Z,2.83
2022-12-05T00:48:18.693Z,2.76
2022-12-05T00:49:18.695Z,2.69
2022-12-05T00:50:18.678Z,2.94
2022-12-05T00:51:18.666Z,2.77
2022-12-05T00:52:18.653Z,2.90
2022-12-05T00:53:18.641Z,2.89
2022-12-05T00:54:18.642Z,2.89
2022-12-05T00:55:18.624Z,2.94
2022-12-05T00:56:18.609Z,3.16
2022-12-05T00:57:18.607Z,2.98
2022-12-05T00:58:18.581Z,3.16
2022-12-05T00:59:18.614Z,3.12
2022-12-05T01:00:18.563Z,3.20
2022-12-05T01:01:18.673Z,3.05
2022-12-05T01:02:18.547Z,3.13
2022-12-05T01:03:18.626Z,3.15
2022-12-05T01:04:18.539Z,3.17
2022-12-05T01:05:18.525Z,3.19
2022-12-05T01:06:18.498Z,3.19
2022-12-05T01:07:18.496Z,3.15
2022-12-05T01:08:18.570Z,3.16
2022-12-05T01:09:18.512Z,3.13
2022-12-05T01:10:18.490Z,3.15
2022-12-05T01:11:18.444Z,3.20
2022-12-05T01:12:18.440Z,3.22
2022-12-05T01:13:18.442Z,3.19
2022-12-05T01:14:18.805Z,3.13
2022-12-05T01:15:18.433Z,3.20
2022-12-05T01:16:18.461Z,3.17
2022-12-05T01:17:18.382Z,3.23
2022-12-05T01:18:18.367Z,3.15
2022-12-05T01:19:18.361Z,3.17
2022-12-05T01:20:18.345Z,3.26
2022-12-05T01:21:18.409Z,3.16
2022-12-05T01:22:18.323Z,3.19
2022-12-05T01:23:18.315Z,3.20
2022-12-05T01:24:18.316Z,3.26
2022-12-05T01:25:18.292Z,3.17
2022-12-05T01:26:18.279Z,3.16
2022-12-05T01:27:18.265Z,3.15
2022-12-05T01:28:18.255Z,3.16
2022-12-05T01:29:18.414Z,3.19
2022-12-05T01:30:18.240Z,3.20
2022-12-05T01:31:18.325Z,3.16
2022-12-05T01:32:18.322Z,3.20
2022-12-05T01:33:18.202Z,3.20
2022-12-05T01:34:18.209Z,3.23
2022-12-05T01:35:18.209Z,3.20
2022-12-05T01:36:18.176Z,3.17
2022-12-05T01:37:18.163Z,3.16
2022-12-05T01:38:18.149Z,3.25
2022-12-05T01:39:18.165Z,3.17
2022-12-05T01:40:18.137Z,3.19
2022-12-05T01:41:18.122Z,3.15
2022-12-05T01:42:21.847Z,3.17
2022-12-05T01:43:19.110Z,3.19
2022-12-05T01:44:18.110Z,3.22
2022-12-05T01:45:18.095Z,3.22
2022-12-05T01:46:18.187Z,3.22
2022-12-05T01:47:18.065Z,3.26
2022-12-05T01:48:18.047Z,3.22
2022-12-05T01:49:18.074Z,3.22
2022-12-05T01:50:18.024Z,3.23
2022-12-05T01:51:18.015Z,3.23
2022-12-05T01:52:18.011Z,3.19
2022-12-05T01:53:18.027Z,3.26
2022-12-05T01:54:18.006Z,3.22
2022-12-05T01:55:17.975Z,3.22
2022-12-05T01:56:17.962Z,3.28
2022-12-05T01:57:17.949Z,3.25
2022-12-05T01:58:17.947Z,3.20
2022-12-05T01:59:17.944Z,3.26
2022-12-05T02:00:17.950Z,3.22
2022-12-05T02:01:18.122Z,3.19
2022-12-05T02:02:17.957Z,3.25
2022-12-05T02:03:17.885Z,3.26
2022-12-05T02:04:17.928Z,3.25
2022-12-05T02:05:17.865Z,3.26
2022-12-05T02:06:17.849Z,3.30
2022-12-05T02:07:17.863Z,3.22
2022-12-05T02:08:17.939Z,3.20
2022-12-05T02:09:17.841Z,3.33
2022-12-05T02:10:17.846Z,3.35
2022-12-05T02:11:17.795Z,3.31
2022-12-05T02:12:17.783Z,3.33
2022-12-05T02:13:17.781Z,3.34
2022-12-05T02:14:17.777Z,3.34
2022-12-05T02:15:17.755Z,3.35
2022-12-05T02:16:17.869Z,3.35
2022-12-05T02:17:17.749Z,3.35
2022-12-05T02:18:17.716Z,3.31
2022-12-05T02:19:17.740Z,3.23
2022-12-05T02:20:17.699Z,3.39
2022-12-05T02:21:17.705Z,3.34
2022-12-05T02:22:17.700Z,3.37
2022-12-05T02:23:17.669Z,3.42
2022-12-05T02:24:17.668Z,3.33
2022-12-05T02:25:17.667Z,3.37
2022-12-05T02:26:17.654Z,3.39
2022-12-05T02:27:17.625Z,3.45
2022-12-05T02:28:17.615Z,3.39
2022-12-05T02:29:17.628Z,3.35
2022-12-05T02:30:17.595Z,3.22
2022-12-05T02:31:17.680Z,3.33
2022-12-05T02:32:17.589Z,3.35
2022-12-05T02:33:17.596Z,3.19
2022-12-05T02:34:17.569Z,3.17
2022-12-05T02:35:17.543Z,3.22
2022-12-05T02:36:17.524Z,3.37
2022-12-05T02:37:17.522Z,3.35
2022-12-05T02:38:17.532Z,3.31
2022-12-05T02:39:17.517Z,3.28
2022-12-05T02:40:17.493Z,3.39
2022-12-05T02:41:17.506Z,3.19
2022-12-05T02:42:17.468Z,3.26
2022-12-05T02:43:17.466Z,3.25
2022-12-05T02:44:17.456Z,3.30
2022-12-05T02:45:17.450Z,3.28
2022-12-05T02:46:17.492Z,3.28
2022-12-05T02:47:17.430Z,3.19
2022-12-05T02:48:17.397Z,3.25
2022-12-05T02:49:17.457Z,3.23
2022-12-05T02:50:17.378Z,3.20
2022-12-05T02:51:17.373Z,3.30
2022-12-05T02:52:17.401Z,3.19
2022-12-05T02:53:17.353Z,3.28
2022-12-05T02:54:17.373Z,3.34
2022-12-05T02:55:17.330Z,3.30
2022-12-05T02:56:17.677Z,3.33
2022-12-05T02:57:17.318Z,3.26
2022-12-05T02:58:17.325Z,3.17
2022-12-05T02:59:23.047Z,3.19
2022-12-05T03:00:18.290Z,3.20
2022-12-05T03:01:17.378Z,3.30
2022-12-05T03:02:17.246Z,3.20
2022-12-05T03:03:17.251Z,3.25
2022-12-05T03:04:17.241Z,3.25
2022-12-05T03:05:17.244Z,3.25
2022-12-05T03:06:17.317Z,3.23
2022-12-05T03:07:17.200Z,3.23
2022-12-05T03:08:17.319Z,3.17
2022-12-05T03:09:17.194Z,3.26
2022-12-05T03:10:17.161Z,3.35
2022-12-05T03:11:17.152Z,3.22
2022-12-05T03:12:17.140Z,3.26
2022-12-05T03:13:17.181Z,3.30
2022-12-05T03:14:17.146Z,3.33
2022-12-05T03:15:17.116Z,3.23
2022-12-05T03:16:17.160Z,3.25
2022-12-05T03:17:17.090Z,3.30
2022-12-05T03:18:17.107Z,3.30
2022-12-05T03:19:17.085Z,3.26
2022-12-05T03:20:17.058Z,3.19
2022-12-05T03:21:17.070Z,3.30
2022-12-05T03:22:17.036Z,3.34
2022-12-05T03:23:17.027Z,3.34
2022-12-05T03:24:17.049Z,3.28
2022-12-05T03:25:17.007Z,3.37
2022-12-05T03:26:16.996Z,3.35
2022-12-05T03:27:17.021Z,3.34
2022-12-05T03:28:16.972Z,3.22
2022-12-05T03:29:16.988Z,3.33
2022-12-05T03:30:16.971Z,3.37
2022-12-05T03:31:17.019Z,3.22
2022-12-05T03:32:16.927Z,3.25
2022-12-05T03:33:16.922Z,3.26
2022-12-05T03:34:16.924Z,3.20
2022-12-05T03:35:16.897Z,3.23
2022-12-05T03:36:16.887Z,3.25
2022-12-05T03:37:16.905Z,3.23
2022-12-05T03:38:16.865Z,3.17
2022-12-05T03:39:16.873Z,3.19
2022-12-05T03:40:16.841Z,3.26
2022-12-05T03:41:16.828Z,3.22
2022-12-05T03:42:16.828Z,3.25
2022-12-05T03:43:16.811Z,3.35
2022-12-05T03:44:16.845Z,3.20
2022-12-05T03:45:16.785Z,3.31
2022-12-05T03:46:16.800Z,3.42
2022-12-05T03:47:16.769Z,3.37
2022-12-05T03:48:16.768Z,3.39
2022-12-05T03:49:16.774Z,3.33
2022-12-05T03:50:16.749Z,3.45
2022-12-05T03:51:16.735Z,3.39
2022-12-05T03:52:16.718Z,3.45
2022-12-05T03:53:20.941Z,3.57
2022-12-05T03:54:16.703Z,3.49
2022-12-05T03:55:17.314Z,3.42
2022-12-05T03:56:16.671Z,3.45
2022-12-05T03:57:16.668Z,3.50
2022-12-05T03:58:16.665Z,3.59
2022-12-05T03:59:16.643Z,3.49
2022-12-05T04:00:16.627Z,3.54
2022-12-05T04:01:16.701Z,3.57
2022-12-05T04:02:16.614Z,3.54
2022-12-05T04:03:16.692Z,3.54
2022-12-05T04:04:16.599Z,3.59
2022-12-05T04:05:16.588Z,3.56
2022-12-05T04:06:16.556Z,3.57
2022-12-05T04:07:16.559Z,3.52
2022-12-05T04:08:16.606Z,3.57
2022-12-05T04:09:17.488Z,3.57
2022-12-05T04:10:16.516Z,3.62
2022-12-05T04:11:16.524Z,3.49
2022-12-05T04:12:16.500Z,3.56
2022-12-05T04:13:16.510Z,3.53
2022-12-05T04:14:16.503Z,3.53
2022-12-05T04:15:16.474Z,3.54
2022-12-05T04:16:16.620Z,3.54
2022-12-05T04:17:16.453Z,3.56
2022-12-05T04:18:16.429Z,3.46
2022-12-05T04:19:16.440Z,3.54
2022-12-05T04:20:16.410Z,3.52
2022-12-05T04:21:16.410Z,3.56
2022-12-05T04:22:16.388Z,3.53
2022-12-05T04:23:16.442Z,3.54
2022-12-05T04:24:16.393Z,3.53
2022-12-05T04:25:16.387Z,3.57
2022-12-05T04:26:16.345Z,3.54
2022-12-05T04:27:16.346Z,3.57
2022-12-05T04:28:21.211Z,3.60
2022-12-05T04:29:17.327Z,3.59
2022-12-05T04:30:16.302Z,3.67
2022-12-05T04:31:16.401Z,3.64
2022-12-05T04:32:16.279Z,3.63
2022-12-05T04:33:16.276Z,3.68
2022-12-05T04:34:16.301Z,3.68
2022-12-05T04:35:16.252Z,3.64
2022-12-05T04:36:16.266Z,3.75
2022-12-05T04:37:16.229Z,3.62
2022-12-05T04:38:16.216Z,3.68
2022-12-05T04:39:18.441Z,3.68
2022-12-05T04:40:16.199Z,3.63
2022-12-05T04:41:16.208Z,3.64
2022-12-05T04:42:16.222Z,3.64
2022-12-05T04:43:16.172Z,3.57
2022-12-05T04:44:16.166Z,3.62
2022-12-05T04:45:16.158Z,3.70
2022-12-05T04:46:16.279Z,3.77
2022-12-05T04:47:16.131Z,3.72
2022-12-05T04:48:16.119Z,3.68
2022-12-05T04:49:16.132Z,3.67
2022-12-05T04:50:16.093Z,3.60
2022-12-05T04:51:16.077Z,3.64
2022-12-05T04:52:16.069Z,3.72
2022-12-05T04:53:16.077Z,3.78
2022-12-05T04:54:16.069Z,3.74
2022-12-05T04:55:16.034Z,3.82
2022-12-05T04:56:16.027Z,3.81
2022-12-05T04:57:16.036Z,3.78
2022-12-05T04:58:16.004Z,3.84
2022-12-05T04:59:16.015Z,3.82
2022-12-05T05:00:15.988Z,3.88
2022-12-05T05:01:16.017Z,3.96
2022-12-05T05:02:15.957Z,4.00
2022-12-05T05:03:16.027Z,4.13
2022-12-05T05:04:16.016Z,4.25
2022-12-05T05:05:15.962Z,4.34
2022-12-05T05:06:15.922Z,4.43
2022-12-05T05:07:15.911Z,4.46
2022-12-05T05:08:15.949Z,4.49
2022-12-05T05:09:15.909Z,4.50
2022-12-05T05:10:15.887Z,4.64
2022-12-05T05:11:15.875Z,4.56
2022-12-05T05:12:19.127Z,4.67
2022-12-05T05:13:15.865Z,4.68
2022-12-05T05:14:15.863Z,4.62
2022-12-05T05:15:15.844Z,4.59
2022-12-05T05:16:15.909Z,4.62
2022-12-05T05:17:15.805Z,4.65
2022-12-05T05:18:15.804Z,4.64
2022-12-05T05:19:15.793Z,4.61
2022-12-05T05:20:19.766Z,4.62
2022-12-05T05:21:15.761Z,4.54
2022-12-05T05:22:15.766Z,4.69
2022-12-05T05:23:15.754Z,4.69
2022-12-05T05:24:15.740Z,4.77
2022-12-05T05:25:15.792Z,4.83
2022-12-05T05:26:15.699Z,4.87
2022-12-05T05:27:15.718Z,4.88
2022-12-05T05:28:15.696Z,4.99
2022-12-05T05:29:15.691Z,4.97
2022-12-05T05:30:15.661Z,5.08
2022-12-05T05:31:15.762Z,5.06
2022-12-05T05:32:15.728Z,5.11
2022-12-05T05:33:15.661Z,5.12
2022-12-05T05:34:15.634Z,5.08
2022-12-05T05:35:15.608Z,5.20
2022-12-05T05:36:15.622Z,5.23
2022-12-05T05:37:15.589Z,5.22
2022-12-05T05:38:15.607Z,5.33
2022-12-05T05:39:15.661Z,5.37
2022-12-05T05:40:15.553Z,5.32
2022-12-05T05:41:15.541Z,5.33
2022-12-05T05:42:15.547Z,5.33
2022-12-05T05:43:15.559Z,5.41
2022-12-05T05:44:15.526Z,5.42
2022-12-05T05:45:15.533Z,5.41
2022-12-05T05:46:15.525Z,5.41
2022-12-05T05:47:15.506Z,5.30
2022-12-05T05:48:15.464Z,5.37
2022-12-05T05:49:15.476Z,5.32
2022-12-05T05:50:21.180Z,5.29
2022-12-05T05:51:16.447Z,5.29
2022-12-05T05:52:15.420Z,5.32
2022-12-05T05:53:15.412Z,5.29
2022-12-05T05:54:15.421Z,5.29
2022-12-05T05:55:15.411Z,5.27
2022-12-05T05:56:20.172Z,5.23
2022-12-05T05:57:20.339Z,5.22
2022-12-05T05:58:15.362Z,5.22
2022-12-05T05:59:15.376Z,5.20
2022-12-05T06:00:15.339Z,5.30
2022-12-05T06:01:15.381Z,5.30
2022-12-05T06:02:15.322Z,5.30
2022-12-05T06:03:15.500Z,5.45
2022-12-05T06:04:15.415Z,5.45
2022-12-05T06:05:15.294Z,5.45
2022-12-05T06:06:15.275Z,5.49
2022-12-05T06:07:15.282Z,5.58
2022-12-05T06:08:15.360Z,5.59
2022-12-05T06:09:15.300Z,5.59
2022-12-05T06:10:15.258Z,5.45
2022-12-05T06:11:18.865Z,5.60
2022-12-05T06:12:16.208Z,5.52
2022-12-05T06:13:15.212Z,5.63
2022-12-05T06:14:15.226Z,5.63
2022-12-05T06:15:15.206Z,5.63
2022-12-05T06:16:15.220Z,5.59
2022-12-05T06:17:15.177Z,5.63
2022-12-05T06:18:15.149Z,5.63
2022-12-05T06:19:15.173Z,5.75
2022-12-05T06:20:15.126Z,5.75
2022-12-05T06:21:16.527Z,5.73
2022-12-05T06:22:15.114Z,5.67
2022-12-05T06:23:15.090Z,5.75
2022-12-05T06:24:15.085Z,5.80
2022-12-05T06:25:15.081Z,5.80
2022-12-05T06:26:15.073Z,5.77
2022-12-05T06:27:15.049Z,5.78
2022-12-05T06:28:15.047Z,5.77
2022-12-05T06:29:15.104Z,5.83
2022-12-05T06:30:15.019Z,5.83
2022-12-05T06:31:15.066Z,5.77
2022-12-05T06:32:15.001Z,5.81
2022-12-05T06:33:15.042Z,5.74
2022-12-05T06:34:15.015Z,5.78
2022-12-05T06:35:14.971Z,5.77
2022-12-05T06:36:14.955Z,5.80
2022-12-05T06:37:14.956Z,5.80
2022-12-05T06:38:14.928Z,5.77
2022-12-05T06:39:14.937Z,5.85
2022-12-05T06:40:14.921Z,5.95
2022-12-05T06:41:14.898Z,5.88
2022-12-05T06:42:14.883Z,5.88
2022-12-05T06:43:14.882Z,5.92
2022-12-05T06:44:14.889Z,5.93
2022-12-05T06:45:14.869Z,5.98
2022-12-05T06:46:14.958Z,5.83
2022-12-05T06:47:14.841Z,5.84
2022-12-05T06:48:15.803Z,5.80
2022-12-05T06:49:14.866Z,5.81
2022-12-05T06:50:14.802Z,5.80
2022-12-05T06:51:14.804Z,5.83
2022-12-05T06:52:14.813Z,5.74
2022-12-05T06:53:14.807Z,5.80
2022-12-05T06:54:14.780Z,5.83
2022-12-05T06:55:14.785Z,5.75
2022-12-05T06:56:14.738Z,5.81
2022-12-05T06:57:14.742Z,5.85
2022-12-05T06:58:14.716Z,5.84
2022-12-05T06:59:14.741Z,5.78
2022-12-05T07:00:14.707Z,5.81
2022-12-05T07:01:14.850Z,5.84
2022-12-05T07:02:14.742Z,5.88
2022-12-05T07:03:14.804Z,5.84
2022-12-05T07:04:14.679Z,5.77
2022-12-05T07:05:14.678Z,5.85
2022-12-05T07:06:14.627Z,5.80
2022-12-05T07:07:14.640Z,5.81
2022-12-05T07:08:14.721Z,5.87
2022-12-05T07:09:14.614Z,5.84
2022-12-05T07:10:14.591Z,5.77
2022-12-05T07:11:14.603Z,5.90
2022-12-05T07:12:14.593Z,5.88
2022-12-05T07:13:15.862Z,5.90
2022-12-05T07:14:24.898Z,5.96
2022-12-05T07:15:15.534Z,5.90
2022-12-05T07:16:14.565Z,5.88
2022-12-05T07:17:14.528Z,5.93
2022-12-05T07:18:14.511Z,5.96
2022-12-05T07:19:14.517Z,5.96
2022-12-05T07:20:14.504Z,5.92
2022-12-05T07:21:14.918Z,5.95
2022-12-05T07:22:16.094Z,5.96
2022-12-05T07:23:14.524Z,5.93
2022-12-05T07:24:14.473Z,5.84
2022-12-05T07:25:14.474Z,6.01
2022-12-05T07:26:14.474Z,6.01
2022-12-05T07:27:14.406Z,5.99
2022-12-05T07:28:14.474Z,6.03
2022-12-05T07:29:14.418Z,5.92
2022-12-05T07:30:14.410Z,6.02
2022-12-05T07:31:14.440Z,6.01
2022-12-05T07:32:14.452Z,5.96
2022-12-05T07:33:14.374Z,5.96
2022-12-05T07:34:14.376Z,6.06
2022-12-05T07:35:14.334Z,6.02
2022-12-05T07:36:14.315Z,6.02
2022-12-05T07:37:14.346Z,6.01
2022-12-05T07:38:14.313Z,6.01
2022-12-05T07:39:14.323Z,6.05
2022-12-05T07:40:14.280Z,5.99
2022-12-05T07:41:14.274Z,6.06
2022-12-05T07:42:14.254Z,5.96
2022-12-05T07:43:14.265Z,6.02
2022-12-05T07:44:14.246Z,6.08
2022-12-05T07:45:14.220Z,5.98
2022-12-05T07:46:14.248Z,6.06
2022-12-05T07:47:14.259Z,6.02
2022-12-05T07:48:18.320Z,5.99
2022-12-05T07:49:14.208Z,6.14
2022-12-05T07:50:14.173Z,6.14
2022-12-05T07:51:14.163Z,6.08
2022-12-05T07:52:14.141Z,6.11
2022-12-05T07:53:14.167Z,6.16
2022-12-05T07:54:14.120Z,6.17
2022-12-05T07:55:14.121Z,6.16
2022-12-05T07:56:14.117Z,6.08
2022-12-05T07:57:14.122Z,6.10
2022-12-05T07:58:14.092Z,6.03
2022-12-05T07:59:14.080Z,6.06
2022-12-05T08:00:14.082Z,6.11
2022-12-05T08:01:14.117Z,6.10
2022-12-05T08:02:14.097Z,6.06
2022-12-05T08:03:14.065Z,6.16
2022-12-05T08:04:15.746Z,6.10
2022-12-05T08:05:14.015Z,6.21
2022-12-05T08:06:14.006Z,6.20
2022-12-05T08:07:14.051Z,6.32
2022-12-05T08:08:14.042Z,6.39
2022-12-05T08:09:13.998Z,6.38
2022-12-05T08:10:13.954Z,6.32
2022-12-05T08:11:13.967Z,6.36
2022-12-05T08:12:13.927Z,6.35
2022-12-05T08:13:13.919Z,6.35
2022-12-05T08:14:13.913Z,6.35
2022-12-05T08:15:13.928Z,6.39
2022-12-05T08:16:14.045Z,6.36
2022-12-05T08:17:13.939Z,6.36
2022-12-05T08:18:13.879Z,6.32
2022-12-05T08:19:13.873Z,6.43
2022-12-05T08:20:13.863Z,6.40
2022-12-05T08:21:13.851Z,6.55
2022-12-05T08:22:13.878Z,6.48
2022-12-05T08:23:13.814Z,6.48
2022-12-05T08:24:13.815Z,6.42
2022-12-05T08:25:13.851Z,6.45
2022-12-05T08:26:13.818Z,6.32
2022-12-05T08:27:13.919Z,6.32
2022-12-05T08:28:13.775Z,6.32
2022-12-05T08:29:13.771Z,6.50
2022-12-05T08:30:13.738Z,6.53
2022-12-05T08:31:13.776Z,6.55
2022-12-05T08:32:13.724Z,6.51
2022-12-05T08:33:13.700Z,6.54
2022-12-05T08:34:13.696Z,6.68
2022-12-05T08:35:13.805Z,6.57
2022-12-05T08:36:13.692Z,6.64
2022-12-05T08:37:13.677Z,6.63
2022-12-05T08:38:13.670Z,6.64
2022-12-05T08:39:13.631Z,6.68
2022-12-05T08:40:13.650Z,6.69
2022-12-05T08:41:13.709Z,6.71
2022-12-05T08:42:13.649Z,6.76
2022-12-05T08:43:13.604Z,6.79
2022-12-05T08:44:13.663Z,6.83
2022-12-05T08:45:13.572Z,6.81
2022-12-05T08:46:13.620Z,6.83
2022-12-05T08:47:13.555Z,6.94
2022-12-05T08:48:13.566Z,6.94
2022-12-05T08:49:13.561Z,6.90
2022-12-05T08:50:13.517Z,6.99
2022-12-05T08:51:13.508Z,6.99
2022-12-05T08:52:13.521Z,7.07
2022-12-05T08:53:13.506Z,7.04
2022-12-05T08:54:13.487Z,7.08
2022-12-05T08:55:13.458Z,7.14
2022-12-05T08:56:13.486Z,7.11
2022-12-05T08:57:13.457Z,7.11
2022-12-05T08:58:13.443Z,7.12
2022-12-05T08:59:13.568Z,7.16
2022-12-05T09:00:13.422Z,7.12
2022-12-05T09:01:13.444Z,7.11
2022-12-05T09:02:13.505Z,7.12
2022-12-05T09:03:13.404Z,7.07
2022-12-05T09:04:13.399Z,7.15
2022-12-05T09:05:26.934Z,7.09
2022-12-05T09:06:14.352Z,7.01
2022-12-05T09:07:13.411Z,7.05
2022-12-05T09:08:13.373Z,7.14
2022-12-05T09:09:13.327Z,7.14
2022-12-05T09:10:13.303Z,7.15
2022-12-05T09:11:13.285Z,7.08
2022-12-05T09:12:13.275Z,7.11
2022-12-05T09:13:13.343Z,7.12
2022-12-05T09:14:13.282Z,7.12
2022-12-05T09:15:13.247Z,7.07
2022-12-05T09:16:13.309Z,7.18
2022-12-05T09:17:13.247Z,7.18
2022-12-05T09:18:13.234Z,7.18
2022-12-05T09:19:13.219Z,7.27
2022-12-05T09:20:13.256Z,7.19
2022-12-05T09:21:13.212Z,7.23
2022-12-05T09:22:13.214Z,7.26
2022-12-05T09:23:16.120Z,7.27
2022-12-05T09:24:13.277Z,7.30
2022-12-05T09:25:13.153Z,7.24
2022-12-05T09:26:13.150Z,7.42
2022-12-05T09:27:13.124Z,7.42
2022-12-05T09:28:13.117Z,7.36
2022-12-05T09:29:17.711Z,7.39
2022-12-05T09:30:14.095Z,7.32
2022-12-05T09:31:13.184Z,7.37
2022-12-05T09:32:13.108Z,7.44
2022-12-05T09:33:13.062Z,7.44
2022-12-05T09:34:13.084Z,7.51
2022-12-05T09:35:13.038Z,7.37
2022-12-05T09:36:13.019Z,7.50
2022-12-05T09:37:37.339Z,7.34
2022-12-05T09:38:13.999Z,7.42
2022-12-05T09:39:13.022Z,7.41
2022-12-05T09:40:13.008Z,7.39
2022-12-05T09:41:12.982Z,7.44
2022-12-05T09:42:12.955Z,7.45
2022-12-05T09:43:12.941Z,7.32
2022-12-05T09:44:13.013Z,7.34
2022-12-05T09:45:13.377Z,7.39
2022-12-05T09:46:13.011Z,7.39
2022-12-05T09:47:12.902Z,7.39
2022-12-05T09:48:12.898Z,7.41
2022-12-05T09:49:12.905Z,7.42
2022-12-05T09:50:12.883Z,7.39
2022-12-05T09:51:12.862Z,7.33
2022-12-05T09:52:12.915Z,7.32
2022-12-05T09:53:12.898Z,7.44
2022-12-05T09:54:12.832Z,7.45
2022-12-05T09:55:12.839Z,7.41
2022-12-05T09:56:12.807Z,7.41
2022-12-05T09:57:12.852Z,7.44
2022-12-05T09:58:12.848Z,7.44
2022-12-05T09:59:12.778Z,7.48
2022-12-05T10:00:12.784Z,7.58
2022-12-05T10:01:12.854Z,7.63
2022-12-05T10:02:12.791Z,7.74
2022-12-05T10:03:12.731Z,7.86
2022-12-05T10:04:12.844Z,7.81
2022-12-05T10:05:12.850Z,8.02
2022-12-05T10:06:12.697Z,8.24
2022-12-05T10:07:12.698Z,8.31
2022-12-05T10:08:12.836Z,8.31
2022-12-05T10:09:12.671Z,8.31
2022-12-05T10:10:18.427Z,8.25
2022-12-05T10:11:13.648Z,8.34
2022-12-05T10:12:12.638Z,8.32
2022-12-05T10:13:12.639Z,8.37
2022-12-05T10:14:12.631Z,8.34
2022-12-05T10:15:12.641Z,8.32
2022-12-05T10:16:12.636Z,8.31
2022-12-05T10:17:12.589Z,8.28
2022-12-05T10:18:12.579Z,8.36
2022-12-05T10:19:12.583Z,8.32
2022-12-05T10:20:12.610Z,8.22
2022-12-05T10:21:12.539Z,8.29
2022-12-05T10:22:15.976Z,8.34
2022-12-05T10:23:28.164Z,8.37
2022-12-05T10:24:13.502Z,8.29
2022-12-05T10:25:12.511Z,8.22
2022-12-05T10:26:12.490Z,8.20
2022-12-05T10:27:12.489Z,8.22
2022-12-05T10:28:12.460Z,8.17
2022-12-05T10:29:12.487Z,8.32
2022-12-05T10:30:12.471Z,8.25
2022-12-05T10:31:12.528Z,8.27
2022-12-05T10:32:12.436Z,8.22
2022-12-05T10:33:12.452Z,8.24
2022-12-05T10:34:12.413Z,8.37
2022-12-05T10:35:12.410Z,8.42
2022-12-05T10:36:12.364Z,8.65
2022-12-05T10:37:12.358Z,8.75
2022-12-05T10:38:12.347Z,8.67
2022-12-05T10:39:12.403Z,8.83
2022-12-05T10:40:12.341Z,8.91
2022-12-05T10:41:12.314Z,9.22
2022-12-05T10:42:12.308Z,9.22
2022-12-05T10:43:12.305Z,9.34
2022-12-05T10:44:12.378Z,9.41
2022-12-05T10:45:12.287Z,9.49
2022-12-05T10:46:16.883Z,9.40
2022-12-05T10:47:13.278Z,9.32
2022-12-05T10:48:12.233Z,9.17
2022-12-05T10:49:12.244Z,9.23
2022-12-05T10:50:12.240Z,9.04
2022-12-05T10:51:12.208Z,9.01
2022-12-05T10:52:12.196Z,9.19
2022-12-05T10:53:12.211Z,9.26
2022-12-05T10:54:12.218Z,9.23
2022-12-05T10:55:12.182Z,9.17
2022-12-05T10:57:13.144Z,9.13
2022-12-05T10:58:17.096Z,9.15
2022-12-05T10:59:13.126Z,9.24
2022-12-05T11:00:12.135Z,9.20
2022-12-05T11:01:12.103Z,9.38
2022-12-05T11:02:12.151Z,9.42
2022-12-05T11:03:12.092Z,9.48
2022-12-05T11:04:13.854Z,9.40
2022-12-05T11:05:12.167Z,9.53
2022-12-05T11:06:12.065Z,9.71
2022-12-05T11:07:12.104Z,9.83
2022-12-05T11:08:12.086Z,10.01
2022-12-05T11:09:12.038Z,9.83
2022-12-05T11:10:12.001Z,9.88
2022-12-05T11:11:12.003Z,10.07
2022-12-05T11:12:12.026Z,10.24
2022-12-05T11:13:12.009Z,10.25
2022-12-05T11:14:11.957Z,10.43
2022-12-05T11:15:11.993Z,10.54
2022-12-05T11:16:11.974Z,10.52
2022-12-05T11:17:11.966Z,10.34
2022-12-05T11:18:11.912Z,10.22
2022-12-05T11:19:11.897Z,10.04
2022-12-05T11:20:11.918Z,10.06
2022-12-05T11:21:11.898Z,9.93
2022-12-05T11:22:11.869Z,9.53
2022-12-05T11:23:12.899Z,9.42
2022-12-05T11:24:11.883Z,9.30
2022-12-05T11:25:11.853Z,9.70
2022-12-05T11:26:11.863Z,9.98
2022-12-05T11:27:11.816Z,10.25
2022-12-05T11:28:11.861Z,10.32
2022-12-05T11:29:11.805Z,10.39
2022-12-05T11:30:11.831Z,10.65
2022-12-05T11:31:11.820Z,10.78
2022-12-05T11:32:11.787Z,10.73
2022-12-05T11:33:11.771Z,10.90
2022-12-05T11:34:11.746Z,11.03
2022-12-05T11:35:11.802Z,11.09
2022-12-05T11:36:11.723Z,11.19
2022-12-05T11:37:11.779Z,11.30
2022-12-05T11:38:11.705Z,11.45
2022-12-05T11:39:11.682Z,11.45
2022-12-05T11:40:11.704Z,10.98
2022-12-05T11:41:11.707Z,10.62
2022-12-05T11:42:11.676Z,10.24
2022-12-05T11:43:11.642Z,9.89
2022-12-05T11:44:11.628Z,9.70
2022-12-05T11:45:11.678Z,9.58
2022-12-05T11:46:11.667Z,9.45
2022-12-05T11:47:11.711Z,9.03
2022-12-05T11:48:11.584Z,8.82
2022-12-05T11:49:11.597Z,8.68
2022-12-05T11:50:13.369Z,8.54
2022-12-05T11:51:12.089Z,8.47
2022-12-05T11:52:11.541Z,8.34
2022-12-05T11:53:11.601Z,8.34
2022-12-05T11:54:11.514Z,8.20
2022-12-05T11:55:11.526Z,8.28
2022-12-05T11:56:11.540Z,8.36
2022-12-05T11:57:11.503Z,8.49
2022-12-05T11:58:11.496Z,8.47
2022-12-05T11:59:11.813Z,8.46
2022-12-05T12:01:21.624Z,8.47
2022-12-05T12:02:11.539Z,8.58
2022-12-05T12:03:11.521Z,8.61
2022-12-05T12:04:11.454Z,8.76
2022-12-05T12:05:11.426Z,8.86
2022-12-05T12:06:11.386Z,8.89
2022-12-05T12:07:11.404Z,8.89
2022-12-05T12:08:11.514Z,8.94
2022-12-05T12:09:11.379Z,8.96
2022-12-05T12:10:11.425Z,9.01
2022-12-05T12:11:11.359Z,9.15
2022-12-05T12:12:11.319Z,9.20
2022-12-05T12:13:11.328Z,9.40
2022-12-05T12:14:11.319Z,9.32
2022-12-05T12:15:11.323Z,9.16
2022-12-05T12:16:11.323Z,9.08
2022-12-05T12:17:11.409Z,8.91
2022-12-05T12:19:19.892Z,8.50
2022-12-05T12:20:11.260Z,8.39
2022-12-05T12:21:11.221Z,8.25
2022-12-05T12:22:11.215Z,8.22
2022-12-05T12:23:11.208Z,8.02
2022-12-05T12:24:11.186Z,7.82
2022-12-05T12:25:11.227Z,7.85
2022-12-05T12:26:12.123Z,7.70
2022-12-05T12:28:24.819Z,7.76
2022-12-05T12:29:11.151Z,7.81
2022-12-05T12:30:11.147Z,7.84
2022-12-05T12:31:11.232Z,7.99
2022-12-05T12:32:11.263Z,8.02
2022-12-05T12:33:11.099Z,7.96
2022-12-05T12:34:11.088Z,8.02
2022-12-05T12:35:11.225Z,8.13
2022-12-05T12:36:11.358Z,8.24
2022-12-05T12:37:11.063Z,8.27
2022-12-05T12:38:11.042Z,8.32
2022-12-05T12:39:11.037Z,8.32
2022-12-05T12:40:11.087Z,8.32
2022-12-05T12:41:11.021Z,8.39
2022-12-05T12:42:11.020Z,8.24
2022-12-05T12:43:25.282Z,8.21
2022-12-05T12:44:12.094Z,8.31
2022-12-05T12:45:11.003Z,8.32
2022-12-05T12:46:11.468Z,8.43
2022-12-05T12:47:10.976Z,8.42
2022-12-05T12:48:10.928Z,8.49
2022-12-05T12:49:10.925Z,8.32
2022-12-05T12:50:10.951Z,8.28
2022-12-05T12:51:11.045Z,8.25
2022-12-05T12:52:10.924Z,8.24
2022-12-05T12:53:10.982Z,8.25
2022-12-05T12:54:10.896Z,8.03
2022-12-05T12:55:10.884Z,7.91
2022-12-05T12:56:10.847Z,7.81
2022-12-05T12:57:15.260Z,7.81
2022-12-05T12:58:11.819Z,7.73
2022-12-05T12:59:10.806Z,7.77
2022-12-05T13:00:10.818Z,7.82
2022-12-05T13:01:10.872Z,7.91
2022-12-05T13:02:10.933Z,7.96
2022-12-05T13:03:10.779Z,7.94
2022-12-05T13:04:10.761Z,8.03
2022-12-05T13:05:10.761Z,7.89
2022-12-05T13:06:10.733Z,7.91
2022-12-05T13:07:10.724Z,7.95
2022-12-05T13:08:10.880Z,7.89
2022-12-05T13:09:10.705Z,7.85
2022-12-05T13:10:10.937Z,7.76
2022-12-05T13:11:10.714Z,7.71
2022-12-05T13:12:10.688Z,7.63
2022-12-05T13:13:10.680Z,7.58
2022-12-05T13:14:10.680Z,7.47
2022-12-05T13:15:10.667Z,7.51
2022-12-05T13:16:10.690Z,7.42
2022-12-05T13:17:10.652Z,7.51
2022-12-05T13:18:10.649Z,7.50
2022-12-05T13:19:10.595Z,7.52
2022-12-05T13:20:10.722Z,7.71
2022-12-05T13:21:10.576Z,7.63